sensor_id;sensor_type;location;lat;lon;timestamp;pressure;altitude;pressure_sealevel;temperature;humidity
17311;BME280;8773;43.300;0.394;2022-10-22T00:01:09;99112.84;;;14.00;100.00
17311;BME280;8773;43.300;0.394;2022-10-22T00:03:37;99109.28;;;13.97;100.00
17311;BME280;8773;43.300;0.394;2022-10-22T00:06:05;99115.59;;;14.08;100.00
17311;BME280;8773;43.300;0.394;2022-10-22T00:08:35;99122.81;;;14.21;100.00
17311;BME280;8773;43.300;0.394;2022-10-22T00:11:08;99128.16;;;14.26;100.00
17311;BME280;8773;43.300;0.394;2022-10-22T00:13:36;99129.94;;;14.29;100.00
17311;BME280;8773;43.300;0.394;2022-10-22T00:16:04;99132.19;;;14.09;100.00
17311;BME280;8773;43.300;0.394;2022-10-22T00:18:32;99127.81;;;14.08;100.00
17311;BME280;8773;43.300;0.394;2022-10-22T00:21:00;99129.97;;;13.82;100.00
17311;BME280;8773;43.300;0.394;2022-10-22T00:23:29;99123.16;;;13.91;100.00
17311;BME280;8773;43.300;0.394;2022-10-22T00:25:58;99117.56;;;13.71;100.00
17311;BME280;8773;43.300;0.394;2022-10-22T00:28:26;99108.78;;;13.68;100.00
17311;BME280;8773;43.300;0.394;2022-10-22T00:30:55;99109.25;;;13.47;100.00
17311;BME280;8773;43.300;0.394;2022-10-22T00:33:23;99107.81;;;13.63;100.00
17311;BME280;8773;43.300;0.394;2022-10-22T00:35:51;99106.78;;;13.54;100.00
17311;BME280;8773;43.300;0.394;2022-10-22T00:38:19;99107.53;;;13.49;100.00
17311;BME280;8773;43.300;0.394;2022-10-22T00:40:47;99121.94;;;13.71;100.00
17311;BME280;8773;43.300;0.394;2022-10-22T00:43:18;99117.44;;;13.64;100.00
17311;BME280;8773;43.300;0.394;2022-10-22T00:45:47;99126.31;;;13.72;100.00
17311;BME280;8773;43.300;0.394;2022-10-22T00:48:18;99130.72;;;13.74;100.00
17311;BME280;8773;43.300;0.394;2022-10-22T00:50:49;99131.44;;;13.66;100.00
17311;BME280;8773;43.300;0.394;2022-10-22T00:53:20;99128.75;;;13.61;100.00
17311;BME280;8773;43.300;0.394;2022-10-22T00:55:51;99122.56;;;13.57;100.00
17311;BME280;8773;43.300;0.394;2022-10-22T00:58:26;99125.47;;;13.73;100.00
17311;BME280;8773;43.300;0.394;2022-10-22T01:00:56;99132.44;;;13.72;100.00
17311;BME280;8773;43.300;0.394;2022-10-22T01:03:24;99123.31;;;13.50;100.00
17311;BME280;8773;43.300;0.394;2022-10-22T01:05:55;99118.84;;;13.46;100.00
17311;BME280;8773;43.300;0.394;2022-10-22T01:08:27;99113.72;;;13.52;100.00
17311;BME280;8773;43.300;0.394;2022-10-22T01:11:07;99114.53;;;13.50;100.00
17311;BME280;8773;43.300;0.394;2022-10-22T01:13:48;99113.91;;;13.62;100.00
17311;BME280;8773;43.300;0.394;2022-10-22T01:16:29;99104.19;;;13.56;100.00
17311;BME280;8773;43.300;0.394;2022-10-22T01:19:10;99103.41;;;13.60;100.00
17311;BME280;8773;43.300;0.394;2022-10-22T01:21:43;99117.47;;;13.67;100.00
17311;BME280;8773;43.300;0.394;2022-10-22T01:24:33;99118.84;;;13.46;100.00
17311;BME280;8773;43.300;0.394;2022-10-22T01:27:30;99124.81;;;13.39;100.00
17311;BME280;8773;43.300;0.394;2022-10-22T01:30:02;99114.44;;;13.44;100.00
17311;BME280;8773;43.300;0.394;2022-10-22T01:32:35;99123.03;;;13.36;100.00
17311;BME280;8773;43.300;0.394;2022-10-22T01:35:08;99126.66;;;13.43;100.00
17311;BME280;8773;43.300;0.394;2022-10-22T01:37:46;99123.16;;;13.43;100.00
17311;BME280;8773;43.300;0.394;2022-10-22T01:40:16;99132.81;;;13.47;100.00
17311;BME280;8773;43.300;0.394;2022-10-22T01:42:54;99138.00;;;13.44;100.00
17311;BME280;8773;43.300;0.394;2022-10-22T01:45:24;99134.75;;;13.55;100.00
17311;BME280;8773;43.300;0.394;2022-10-22T01:47:58;99131.13;;;13.49;100.00
17311;BME280;8773;43.300;0.394;2022-10-22T01:50:51;99129.22;;;13.40;100.00
17311;BME280;8773;43.300;0.394;2022-10-22T01:53:28;99134.38;;;13.37;100.00
17311;BME280;8773;43.300;0.394;2022-10-22T01:56:09;99136.16;;;13.38;100.00
17311;BME280;8773;43.300;0.394;2022-10-22T01:58:46;99131.84;;;13.40;100.00
17311;BME280;8773;43.300;0.394;2022-10-22T02:01:25;99129.13;;;13.37;100.00
17311;BME280;8773;43.300;0.394;2022-10-22T02:04:00;99140.69;;;13.45;100.00
17311;BME280;8773;43.300;0.394;2022-10-22T02:06:32;99145.78;;;13.39;100.00
17311;BME280;8773;43.300;0.394;2022-10-22T02:09:03;99142.66;;;13.14;100.00
17311;BME280;8773;43.300;0.394;2022-10-22T02:11:32;99129.94;;;12.92;100.00
17311;BME280;8773;43.300;0.394;2022-10-22T02:14:02;99150.97;;;12.97;100.00
17311;BME280;8773;43.300;0.394;2022-10-22T02:16:34;99148.34;;;12.95;100.00
17311;BME280;8773;43.300;0.394;2022-10-22T02:19:09;99141.28;;;12.91;100.00
17311;BME280;8773;43.300;0.394;2022-10-22T02:21:38;99135.28;;;12.97;100.00
17311;BME280;8773;43.300;0.394;2022-10-22T02:24:06;99131.47;;;12.82;100.00
17311;BME280;8773;43.300;0.394;2022-10-22T02:26:39;99124.91;;;13.01;100.00
17311;BME280;8773;43.300;0.394;2022-10-22T02:29:12;99130.63;;;12.83;100.00
17311;BME280;8773;43.300;0.394;2022-10-22T02:31:44;99130.56;;;12.80;100.00
17311;BME280;8773;43.300;0.394;2022-10-22T02:34:18;99127.41;;;12.97;100.00
17311;BME280;8773;43.300;0.394;2022-10-22T02:36:49;99137.38;;;13.11;100.00
17311;BME280;8773;43.300;0.394;2022-10-22T02:39:19;99127.09;;;12.81;100.00
17311;BME280;8773;43.300;0.394;2022-10-22T02:41:47;99126.53;;;12.96;100.00
17311;BME280;8773;43.300;0.394;2022-10-22T02:44:19;99132.13;;;13.11;100.00
17311;BME280;8773;43.300;0.394;2022-10-22T02:46:49;99131.47;;;13.22;100.00
17311;BME280;8773;43.300;0.394;2022-10-22T02:49:17;99141.09;;;13.23;100.00
17311;BME280;8773;43.300;0.394;2022-10-22T02:51:45;99143.56;;;13.15;100.00
17311;BME280;8773;43.300;0.394;2022-10-22T02:54:13;99137.56;;;13.22;100.00
17311;BME280;8773;43.300;0.394;2022-10-22T02:56:41;99135.19;;;13.33;100.00
17311;BME280;8773;43.300;0.394;2022-10-22T02:59:09;99143.28;;;13.03;100.00
17311;BME280;8773;43.300;0.394;2022-10-22T03:01:37;99139.47;;;12.88;100.00
17311;BME280;8773;43.300;0.394;2022-10-22T03:04:06;99132.56;;;12.92;100.00
17311;BME280;8773;43.300;0.394;2022-10-22T03:06:34;99138.88;;;13.02;100.00
17311;BME280;8773;43.300;0.394;2022-10-22T03:09:02;99147.00;;;13.14;100.00
17311;BME280;8773;43.300;0.394;2022-10-22T03:11:30;99152.25;;;13.14;100.00
17311;BME280;8773;43.300;0.394;2022-10-22T03:13:58;99146.72;;;13.02;100.00
17311;BME280;8773;43.300;0.394;2022-10-22T03:16:26;99150.97;;;12.97;100.00
17311;BME280;8773;43.300;0.394;2022-10-22T03:18:54;99148.81;;;13.15;100.00
17311;BME280;8773;43.300;0.394;2022-10-22T03:21:29;99134.84;;;13.16;100.00
17311;BME280;8773;43.300;0.394;2022-10-22T03:24:00;99141.78;;;13.14;100.00
17311;BME280;8773;43.300;0.394;2022-10-22T03:26:30;99137.88;;;12.97;100.00
17311;BME280;8773;43.300;0.394;2022-10-22T03:28:58;99141.22;;;12.89;100.00
17311;BME280;8773;43.300;0.394;2022-10-22T03:31:27;99141.22;;;12.89;100.00
17311;BME280;8773;43.300;0.394;2022-10-22T03:33:55;99135.38;;;12.62;100.00
17311;BME280;8773;43.300;0.394;2022-10-22T03:36:24;99133.19;;;12.42;100.00
17311;BME280;8773;43.300;0.394;2022-10-22T03:38:52;99131.06;;;12.64;100.00
17311;BME280;8773;43.300;0.394;2022-10-22T03:41:21;99133.25;;;12.83;100.00
17311;BME280;8773;43.300;0.394;2022-10-22T03:43:51;99134.84;;;12.77;100.00
17311;BME280;8773;43.300;0.394;2022-10-22T03:46:20;99148.97;;;12.85;100.00
17311;BME280;8773;43.300;0.394;2022-10-22T03:48:48;99144.81;;;12.93;100.00
17311;BME280;8773;43.300;0.394;2022-10-22T03:51:16;99149.25;;;12.97;100.00
17311;BME280;8773;43.300;0.394;2022-10-22T03:53:45;99145.75;;;12.97;100.00
17311;BME280;8773;43.300;0.394;2022-10-22T03:56:13;99145.78;;;12.98;100.00
17311;BME280;8773;43.300;0.394;2022-10-22T03:58:41;99146.56;;;12.94;100.00
17311;BME280;8773;43.300;0.394;2022-10-22T04:01:11;99148.47;;;13.01;100.00
17311;BME280;8773;43.300;0.394;2022-10-22T04:03:40;99143.63;;;12.79;100.00
17311;BME280;8773;43.300;0.394;2022-10-22T04:06:10;99154.19;;;12.83;100.00
17311;BME280;8773;43.300;0.394;2022-10-22T04:08:42;99161.69;;;12.68;100.00
17311;BME280;8773;43.300;0.394;2022-10-22T04:11:14;99166.25;;;12.77;100.00
17311;BME280;8773;43.300;0.394;2022-10-22T04:13:42;99174.25;;;12.84;100.00
17311;BME280;8773;43.300;0.394;2022-10-22T04:16:12;99175.34;;;12.94;100.00
17311;BME280;8773;43.300;0.394;2022-10-22T04:18:40;99174.66;;;13.01;100.00
17311;BME280;8773;43.300;0.394;2022-10-22T04:21:10;99178.13;;;13.00;100.00
17311;BME280;8773;43.300;0.394;2022-10-22T04:23:43;99183.78;;;12.81;100.00
17311;BME280;8773;43.300;0.394;2022-10-22T04:26:14;99186.31;;;12.76;100.00
17311;BME280;8773;43.300;0.394;2022-10-22T04:28:42;99181.69;;;12.66;100.00
17311;BME280;8773;43.300;0.394;2022-10-22T04:31:13;99179.97;;;12.66;100.00
17311;BME280;8773;43.300;0.394;2022-10-22T04:33:41;99174.22;;;12.45;100.00
17311;BME280;8773;43.300;0.394;2022-10-22T04:36:12;99161.56;;;12.25;100.00
17311;BME280;8773;43.300;0.394;2022-10-22T04:38:41;99164.97;;;12.23;100.00
17311;BME280;8773;43.300;0.394;2022-10-22T04:41:10;99163.25;;;12.23;100.00
17311;BME280;8773;43.300;0.394;2022-10-22T04:43:41;99162.19;;;12.17;100.00
17311;BME280;8773;43.300;0.394;2022-10-22T04:46:11;99167.25;;;12.09;100.00
17311;BME280;8773;43.300;0.394;2022-10-22T04:48:40;99182.22;;;11.83;100.00
17311;BME280;8773;43.300;0.394;2022-10-22T04:51:10;99191.94;;;11.89;100.00
17311;BME280;8773;43.300;0.394;2022-10-22T04:53:39;99186.28;;;12.05;100.00
17311;BME280;8773;43.300;0.394;2022-10-22T04:56:09;99192.13;;;12.28;100.00
17311;BME280;8773;43.300;0.394;2022-10-22T04:58:38;99198.25;;;12.28;100.00
17311;BME280;8773;43.300;0.394;2022-10-22T05:01:13;99206.53;;;12.47;100.00
17311;BME280;8773;43.300;0.394;2022-10-22T05:03:43;99211.22;;;12.60;100.00
17311;BME280;8773;43.300;0.394;2022-10-22T05:06:12;99206.19;;;12.68;100.00
17311;BME280;8773;43.300;0.394;2022-10-22T05:08:40;99209.69;;;12.68;100.00
17311;BME280;8773;43.300;0.394;2022-10-22T05:11:10;99212.38;;;12.37;100.00
17311;BME280;8773;43.300;0.394;2022-10-22T05:13:39;99222.09;;;12.41;100.00
17311;BME280;8773;43.300;0.394;2022-10-22T05:16:07;99225.59;;;12.41;100.00
17311;BME280;8773;43.300;0.394;2022-10-22T05:18:38;99224.72;;;12.42;100.00
17311;BME280;8773;43.300;0.394;2022-10-22T05:21:08;99234.19;;;12.37;100.00
17311;BME280;8773;43.300;0.394;2022-10-22T05:23:37;99231.88;;;12.49;100.00
17311;BME280;8773;43.300;0.394;2022-10-22T05:26:07;99211.75;;;12.45;100.00
17311;BME280;8773;43.300;0.394;2022-10-22T05:28:36;99227.75;;;12.58;100.00
17311;BME280;8773;43.300;0.394;2022-10-22T05:31:05;99227.75;;;12.58;100.00
17311;BME280;8773;43.300;0.394;2022-10-22T05:33:33;99244.84;;;12.45;100.00
17311;BME280;8773;43.300;0.394;2022-10-22T05:36:05;99236.09;;;12.44;100.00
17311;BME280;8773;43.300;0.394;2022-10-22T05:38:34;99240.78;;;12.56;100.00
17311;BME280;8773;43.300;0.394;2022-10-22T05:41:04;99245.66;;;12.42;100.00
17311;BME280;8773;43.300;0.394;2022-10-22T05:43:33;99234.91;;;12.32;100.00
17311;BME280;8773;43.300;0.394;2022-10-22T05:46:02;99236.72;;;12.33;100.00
17311;BME280;8773;43.300;0.394;2022-10-22T05:48:31;99242.84;;;12.01;100.00
17311;BME280;8773;43.300;0.394;2022-10-22T05:51:00;99237.94;;;12.14;100.00
17311;BME280;8773;43.300;0.394;2022-10-22T05:53:32;99239.50;;;12.07;100.00
17311;BME280;8773;43.300;0.394;2022-10-22T05:56:01;99233.38;;;11.75;100.00
17311;BME280;8773;43.300;0.394;2022-10-22T05:58:30;99220.56;;;11.84;100.00
17311;BME280;8773;43.300;0.394;2022-10-22T06:01:01;99234.38;;;11.80;100.00
17311;BME280;8773;43.300;0.394;2022-10-22T06:03:30;99237.00;;;11.80;100.00
17311;BME280;8773;43.300;0.394;2022-10-22T06:06:03;99241.47;;;11.84;100.00
17311;BME280;8773;43.300;0.394;2022-10-22T06:08:33;99235.84;;;11.70;100.00
17311;BME280;8773;43.300;0.394;2022-10-22T06:11:01;99225.25;;;11.64;100.00
17311;BME280;8773;43.300;0.394;2022-10-22T06:13:29;99224.81;;;11.49;100.00
17311;BME280;8773;43.300;0.394;2022-10-22T06:15:58;99219.00;;;11.59;100.00
17311;BME280;8773;43.300;0.394;2022-10-22T06:18:26;99214.28;;;11.77;100.00
17311;BME280;8773;43.300;0.394;2022-10-22T06:20:54;99215.28;;;11.82;100.00
17311;BME280;8773;43.300;0.394;2022-10-22T06:23:22;99215.13;;;11.76;100.00
17311;BME280;8773;43.300;0.394;2022-10-22T06:25:58;99209.63;;;11.66;100.00
17311;BME280;8773;43.300;0.394;2022-10-22T06:28:26;99209.78;;;11.72;100.00
17311;BME280;8773;43.300;0.394;2022-10-22T06:30:56;99206.56;;;11.82;100.00
17311;BME280;8773;43.300;0.394;2022-10-22T06:33:24;99193.16;;;11.70;100.00
17311;BME280;8773;43.300;0.394;2022-10-22T06:35:52;99196.75;;;11.73;100.00
17311;BME280;8773;43.300;0.394;2022-10-22T06:38:20;99199.50;;;11.78;100.00
17311;BME280;8773;43.300;0.394;2022-10-22T06:40:48;99200.88;;;11.65;100.00
17311;BME280;8773;43.300;0.394;2022-10-22T06:43:17;99208.03;;;11.72;100.00
17311;BME280;8773;43.300;0.394;2022-10-22T06:45:46;99217.59;;;11.72;100.00
17311;BME280;8773;43.300;0.394;2022-10-22T06:48:14;99223.88;;;11.47;100.00
17311;BME280;8773;43.300;0.394;2022-10-22T06:50:42;99231.97;;;11.26;100.00
17311;BME280;8773;43.300;0.394;2022-10-22T06:53:10;99236.06;;;11.46;100.00
17311;BME280;8773;43.300;0.394;2022-10-22T06:55:38;99235.47;;;11.56;100.00
17311;BME280;8773;43.300;0.394;2022-10-22T06:58:06;99237.78;;;11.77;100.00
17311;BME280;8773;43.300;0.394;2022-10-22T07:00:35;99241.38;;;11.81;100.00
17311;BME280;8773;43.300;0.394;2022-10-22T07:03:03;99253.16;;;11.97;100.00
17311;BME280;8773;43.300;0.394;2022-10-22T07:05:32;99260.63;;;12.15;100.00
17311;BME280;8773;43.300;0.394;2022-10-22T07:08:00;99267.63;;;12.16;100.00
17311;BME280;8773;43.300;0.394;2022-10-22T07:10:28;99264.41;;;12.26;100.00
17311;BME280;8773;43.300;0.394;2022-10-22T07:12:57;99273.91;;;12.22;100.00
17311;BME280;8773;43.300;0.394;2022-10-22T07:15:28;99289.31;;;12.45;100.00
17311;BME280;8773;43.300;0.394;2022-10-22T07:17:57;99305.38;;;12.59;100.00
17311;BME280;8773;43.300;0.394;2022-10-22T07:20:28;99315.59;;;12.84;100.00
17311;BME280;8773;43.300;0.394;2022-10-22T07:22:58;99324.72;;;13.00;100.00
17311;BME280;8773;43.300;0.394;2022-10-22T07:25:26;99331.47;;;13.25;100.00
17311;BME280;8773;43.300;0.394;2022-10-22T07:27:54;99334.31;;;13.36;100.00
17311;BME280;8773;43.300;0.394;2022-10-22T07:30:22;99330.13;;;13.43;100.00
17311;BME280;8773;43.300;0.394;2022-10-22T07:32:50;99324.72;;;13.36;100.00
17311;BME280;8773;43.300;0.394;2022-10-22T07:35:20;99339.22;;;13.21;100.00
17311;BME280;8773;43.300;0.394;2022-10-22T07:37:47;99336.91;;;13.34;100.00
17311;BME280;8773;43.300;0.394;2022-10-22T07:40:16;99348.75;;;13.55;100.00
17311;BME280;8773;43.300;0.394;2022-10-22T07:42:44;99343.66;;;13.63;100.00
17311;BME280;8773;43.300;0.394;2022-10-22T07:45:12;99349.06;;;13.70;100.00
17311;BME280;8773;43.300;0.394;2022-10-22T07:47:40;99350.53;;;13.98;100.00
17311;BME280;8773;43.300;0.394;2022-10-22T07:50:09;99349.22;;;14.19;100.00
17311;BME280;8773;43.300;0.394;2022-10-22T07:52:40;99356.63;;;14.38;100.00
17311;BME280;8773;43.300;0.394;2022-10-22T07:55:09;99359.63;;;14.58;100.00
17311;BME280;8773;43.300;0.394;2022-10-22T07:57:38;99364.72;;;14.52;100.00
17311;BME280;8773;43.300;0.394;2022-10-22T08:00:07;99359.25;;;14.38;100.00
17311;BME280;8773;43.300;0.394;2022-10-22T08:02:36;99359.63;;;14.58;100.00
17311;BME280;8773;43.300;0.394;2022-10-22T08:05:05;99339.66;;;14.68;100.00
17311;BME280;8773;43.300;0.394;2022-10-22T08:07:33;99337.25;;;14.82;100.00
17311;BME280;8773;43.300;0.394;2022-10-22T08:10:03;99340.19;;;14.97;100.00
17311;BME280;8773;43.300;0.394;2022-10-22T08:12:31;99350.09;;;15.15;100.00
17311;BME280;8773;43.300;0.394;2022-10-22T08:15:00;99346.91;;;15.33;100.00
17311;BME280;8773;43.300;0.394;2022-10-22T08:17:30;99352.22;;;15.39;100.00
17311;BME280;8773;43.300;0.394;2022-10-22T08:19:58;99353.97;;;15.39;100.00
17311;BME280;8773;43.300;0.394;2022-10-22T08:22:26;99357.81;;;15.61;100.00
17311;BME280;8773;43.300;0.394;2022-10-22T08:24:54;99368.44;;;15.68;100.00
17311;BME280;8773;43.300;0.394;2022-10-22T08:27:23;99380.94;;;15.86;100.00
17311;BME280;8773;43.300;0.394;2022-10-22T08:29:51;99376.88;;;16.11;100.00
17311;BME280;8773;43.300;0.394;2022-10-22T08:32:19;99371.97;;;16.36;100.00
17311;BME280;8773;43.300;0.394;2022-10-22T08:34:48;99367.78;;;16.56;100.00
17311;BME280;8773;43.300;0.394;2022-10-22T08:37:16;99366.19;;;16.71;100.00
17311;BME280;8773;43.300;0.394;2022-10-22T08:39:44;99363.66;;;16.80;100.00
17311;BME280;8773;43.300;0.394;2022-10-22T08:42:32;99363.78;;;16.95;100.00
17311;BME280;8773;43.300;0.394;2022-10-22T08:45:11;99355.06;;;17.02;100.00
17311;BME280;8773;43.300;0.394;2022-10-22T08:47:57;99360.56;;;17.26;100.00
17311;BME280;8773;43.300;0.394;2022-10-22T08:50:33;99353.34;;;17.05;100.00
17311;BME280;8773;43.300;0.394;2022-10-22T08:53:04;99360.50;;;17.18;100.00
17311;BME280;8773;43.300;0.394;2022-10-22T08:55:35;99355.25;;;17.24;100.00
17311;BME280;8773;43.300;0.394;2022-10-22T08:58:12;99346.56;;;17.33;100.00
17311;BME280;8773;43.300;0.394;2022-10-22T09:00:52;99351.91;;;17.47;100.00
17311;BME280;8773;43.300;0.394;2022-10-22T09:03:30;99349.31;;;17.50;100.00
17311;BME280;8773;43.300;0.394;2022-10-22T09:06:06;99340.59;;;17.64;100.00
17311;BME280;8773;43.300;0.394;2022-10-22T09:08:35;99336.25;;;17.79;100.00
17311;BME280;8773;43.300;0.394;2022-10-22T09:11:08;99330.97;;;17.74;100.00
17311;BME280;8773;43.300;0.394;2022-10-22T09:13:43;99328.53;;;18.08;100.00
17311;BME280;8773;43.300;0.394;2022-10-22T09:16:17;99335.66;;;18.32;100.00
17311;BME280;8773;43.300;0.394;2022-10-22T09:18:54;99339.16;;;18.22;100.00
17311;BME280;8773;43.300;0.394;2022-10-22T09:21:34;99336.47;;;18.16;100.00
17311;BME280;8773;43.300;0.394;2022-10-22T09:24:10;99328.56;;;18.19;100.00
17311;BME280;8773;43.300;0.394;2022-10-22T09:26:40;99330.41;;;18.44;100.00
17311;BME280;8773;43.300;0.394;2022-10-22T09:29:17;99319.78;;;18.29;100.00
17311;BME280;8773;43.300;0.394;2022-10-22T09:31:46;99318.97;;;18.50;100.00
17311;BME280;8773;43.300;0.394;2022-10-22T09:34:19;99327.84;;;18.83;100.00
17311;BME280;8773;43.300;0.394;2022-10-22T09:36:56;99321.66;;;18.85;100.00
17311;BME280;8773;43.300;0.394;2022-10-22T09:39:26;99313.75;;;19.02;100.00
17311;BME280;8773;43.300;0.394;2022-10-22T09:41:55;99309.34;;;19.15;100.00
17311;BME280;8773;43.300;0.394;2022-10-22T09:44:25;99311.06;;;19.28;100.00
17311;BME280;8773;43.300;0.394;2022-10-22T09:46:53;99314.59;;;19.40;100.00
17311;BME280;8773;43.300;0.394;2022-10-22T09:49:22;99309.28;;;19.46;100.00
17311;BME280;8773;43.300;0.394;2022-10-22T09:51:53;99299.56;;;19.63;100.00
17311;BME280;8773;43.300;0.394;2022-10-22T09:54:23;99293.34;;;19.76;100.00
17311;BME280;8773;43.300;0.394;2022-10-22T09:56:55;99300.31;;;19.96;100.00
17311;BME280;8773;43.300;0.394;2022-10-22T09:59:28;99301.22;;;19.95;100.00
17311;BME280;8773;43.300;0.394;2022-10-22T10:02:03;99299.34;;;20.14;100.00
17311;BME280;8773;43.300;0.394;2022-10-22T10:04:47;99296.75;;;20.03;100.00
17311;BME280;8773;43.300;0.394;2022-10-22T10:07:17;99303.00;;;19.90;100.00
17311;BME280;8773;43.300;0.394;2022-10-22T10:09:46;99295.97;;;19.84;100.00
17311;BME280;8773;43.300;0.394;2022-10-22T10:12:31;99300.31;;;19.99;100.00
17311;BME280;8773;43.300;0.394;2022-10-22T10:15:14;99301.19;;;19.99;100.00
17311;BME280;8773;43.300;0.394;2022-10-22T10:17:54;99298.44;;;20.18;100.00
17311;BME280;8773;43.300;0.394;2022-10-22T10:20:32;99298.28;;;20.49;100.00
17311;BME280;8773;43.300;0.394;2022-10-22T10:23:08;99308.00;;;20.53;100.00
17311;BME280;8773;43.300;0.394;2022-10-22T10:25:46;99305.34;;;20.54;100.00
17311;BME280;8773;43.300;0.394;2022-10-22T10:28:22;99295.59;;;20.58;100.00
17311;BME280;8773;43.300;0.394;2022-10-22T10:31:01;99301.66;;;20.75;100.00
17311;BME280;8773;43.300;0.394;2022-10-22T10:33:41;99297.19;;;20.80;100.00
17311;BME280;8773;43.300;0.394;2022-10-22T10:36:18;99291.78;;;20.91;100.00
17311;BME280;8773;43.300;0.394;2022-10-22T10:38:56;99296.13;;;21.03;100.00
17311;BME280;8773;43.300;0.394;2022-10-22T10:41:37;99291.69;;;21.03;100.00
17311;BME280;8773;43.300;0.394;2022-10-22T10:44:18;99281.06;;;21.03;100.00
17311;BME280;8773;43.300;0.394;2022-10-22T10:47:01;99285.50;;;21.03;100.00
17311;BME280;8773;43.300;0.394;2022-10-22T10:49:34;99280.91;;;21.26;100.00
17311;BME280;8773;43.300;0.394;2022-10-22T10:52:10;99284.19;;;21.50;100.00
17311;BME280;8773;43.300;0.394;2022-10-22T10:54:55;99270.22;;;21.33;100.00
17311;BME280;8773;43.300;0.394;2022-10-22T10:57:36;99263.28;;;21.19;100.00
17311;BME280;8773;43.300;0.394;2022-10-22T11:00:09;99263.88;;;21.47;100.00
17311;BME280;8773;43.300;0.394;2022-10-22T11:03:08;99255.78;;;21.60;100.00
17311;BME280;8773;43.300;0.394;2022-10-22T11:05:44;99255.44;;;21.89;100.00
17311;BME280;8773;43.300;0.394;2022-10-22T11:08:19;99256.16;;;22.02;100.00
17311;BME280;8773;43.300;0.394;2022-10-22T11:10:50;99258.56;;;22.19;100.00
17311;BME280;8773;43.300;0.394;2022-10-22T11:13:28;99263.75;;;22.29;100.00
17311;BME280;8773;43.300;0.394;2022-10-22T11:16:03;99259.22;;;22.34;100.00
17311;BME280;8773;43.300;0.394;2022-10-22T11:18:37;99257.56;;;22.27;100.00
17311;BME280;8773;43.300;0.394;2022-10-22T11:21:16;99246.94;;;22.27;100.00
17311;BME280;8773;43.300;0.394;2022-10-22T11:23:49;99246.81;;;22.36;100.00
17311;BME280;8773;43.300;0.394;2022-10-22T11:26:28;99247.50;;;22.49;100.00
17311;BME280;8773;43.300;0.394;2022-10-22T11:29:00;99241.19;;;22.55;100.00
17311;BME280;8773;43.300;0.394;2022-10-22T11:31:30;99231.41;;;22.60;100.00
17311;BME280;8773;43.300;0.394;2022-10-22T11:34:04;99228.75;;;22.58;96.41
17311;BME280;8773;43.300;0.394;2022-10-22T11:36:54;99216.38;;;22.57;96.32
17311;BME280;8773;43.300;0.394;2022-10-22T11:39:29;99201.00;;;22.75;97.69
17311;BME280;8773;43.300;0.394;2022-10-22T11:41:59;99197.19;;;22.91;99.27
17311;BME280;8773;43.300;0.394;2022-10-22T11:44:28;99185.47;;;23.01;94.88
17311;BME280;8773;43.300;0.394;2022-10-22T11:47:07;99180.28;;;22.94;92.16
17311;BME280;8773;43.300;0.394;2022-10-22T11:49:44;99180.16;;;23.00;97.50
17311;BME280;8773;43.300;0.394;2022-10-22T11:52:26;99181.97;;;22.98;95.23
17311;BME280;8773;43.300;0.394;2022-10-22T11:55:31;99171.38;;;22.96;86.45
17311;BME280;8773;43.300;0.394;2022-10-22T11:58:01;99174.06;;;22.95;88.61
17311;BME280;8773;43.300;0.394;2022-10-22T12:00:36;99163.91;;;23.15;87.17
17311;BME280;8773;43.300;0.394;2022-10-22T12:03:17;99170.09;;;23.16;78.15
17311;BME280;8773;43.300;0.394;2022-10-22T12:06:01;99160.94;;;23.32;78.02
17311;BME280;8773;43.300;0.394;2022-10-22T12:08:30;99157.25;;;23.39;75.22
17311;BME280;8773;43.300;0.394;2022-10-22T12:11:04;99147.41;;;23.43;74.05
17311;BME280;8773;43.300;0.394;2022-10-22T12:14:12;99137.09;;;23.28;74.88
17311;BME280;8773;43.300;0.394;2022-10-22T12:16:44;99132.38;;;23.40;77.40
17311;BME280;8773;43.300;0.394;2022-10-22T12:19:30;99122.19;;;23.61;77.55
17311;BME280;8773;43.300;0.394;2022-10-22T12:22:12;99126.41;;;23.71;74.54
17311;BME280;8773;43.300;0.394;2022-10-22T12:24:43;99119.19;;;23.76;76.43
17311;BME280;8773;43.300;0.394;2022-10-22T12:27:20;99119.09;;;23.79;77.26
17311;BME280;8773;43.300;0.394;2022-10-22T12:29:53;99113.03;;;23.73;72.95
17311;BME280;8773;43.300;0.394;2022-10-22T12:32:22;99107.13;;;23.58;77.71
17311;BME280;8773;43.300;0.394;2022-10-22T12:34:51;99097.88;;;23.76;72.39
17311;BME280;8773;43.300;0.394;2022-10-22T12:37:20;99099.78;;;23.71;72.28
17311;BME280;8773;43.300;0.394;2022-10-22T12:39:50;99103.78;;;23.89;71.99
17311;BME280;8773;43.300;0.394;2022-10-22T12:42:18;99106.28;;;23.97;68.90
17311;BME280;8773;43.300;0.394;2022-10-22T12:44:53;99104.22;;;24.08;71.71
17311;BME280;8773;43.300;0.394;2022-10-22T12:47:22;99093.31;;;24.19;67.13
17311;BME280;8773;43.300;0.394;2022-10-22T12:49:50;99084.38;;;24.21;67.51
17311;BME280;8773;43.300;0.394;2022-10-22T12:52:21;99081.75;;;24.20;64.65
17311;BME280;8773;43.300;0.394;2022-10-22T12:54:51;99080.19;;;24.11;64.94
17311;BME280;8773;43.300;0.394;2022-10-22T12:57:20;99081.66;;;24.23;65.96
17311;BME280;8773;43.300;0.394;2022-10-22T12:59:50;99086.94;;;24.26;64.67
17311;BME280;8773;43.300;0.394;2022-10-22T13:02:20;99085.47;;;24.13;63.64
17311;BME280;8773;43.300;0.394;2022-10-22T13:05:15;99082.22;;;24.36;64.19
17311;BME280;8773;43.300;0.394;2022-10-22T13:07:48;99075.97;;;24.37;67.64
17311;BME280;8773;43.300;0.394;2022-10-22T13:10:20;99065.25;;;24.38;67.42
17311;BME280;8773;43.300;0.394;2022-10-22T13:12:50;99059.78;;;24.44;67.50
17311;BME280;8773;43.300;0.394;2022-10-22T13:15:32;99058.66;;;24.53;64.83
17311;BME280;8773;43.300;0.394;2022-10-22T13:18:15;99053.78;;;24.36;64.37
17311;BME280;8773;43.300;0.394;2022-10-22T13:20:51;99056.75;;;24.58;65.54
17311;BME280;8773;43.300;0.394;2022-10-22T13:23:22;99056.06;;;24.83;67.23
17311;BME280;8773;43.300;0.394;2022-10-22T13:25:59;99058.44;;;24.62;62.39
17311;BME280;8773;43.300;0.394;2022-10-22T13:28:31;99058.94;;;24.77;62.17